Time;durP1;ratioP1;P1;durP2;ratioP2;P2;SDS_P1;SDS_P2;PMS_P1;PMS_P2;Temp;Humidity;BMP_temperature;BMP_pressure;BME280_temperature;BME280_humidity;BME280_pressure;Samples;Min_cycle;Max_cycle;Signal;HPM_P1;HPM_P2
2023/01/19 00:01:42;;;;;;;;;;;;;;;25.58;39.17;93075.69;4909321;29;9026;-66
2023/01/19 00:04:19;;;;;;;;;;;;;;;25.59;38.62;93082.69;4908816;29;8992;-66
2023/01/19 00:06:55;;;;;;;;;;;;;;;25.56;39.28;93089.25;4902609;29;9758;-66
2023/01/19 00:09:22;;;;;;;;;;;;;;;25.57;38.94;93088.00;4896259;29;9150;-65
2023/01/19 00:11:50;;;;;;;;;;;;;;;25.57;39.24;93084.50;4904108;29;7294;-66
2023/01/19 00:14:18;;;;;;;;;;;;;;;25.55;38.80;93085.03;4912498;29;9103;-66
2023/01/19 00:17:00;;;;;;;;;;;;;;;25.54;38.26;93080.81;4897953;29;9185;-66
2023/01/19 00:19:32;;;;;;;;;;;;;;;25.56;39.14;93089.25;4905363;29;9113;-66
2023/01/19 00:22:05;;;;;;;;;;;;;;;25.58;38.65;93086.00;4915270;29;9402;-65
2023/01/19 00:25:01;;;;;;;;;;;;;;;25.56;38.37;93091.28;4916318;28;7342;-65
2023/01/19 00:28:02;;;;;;;;;;;;;;;25.57;38.51;93099.00;4872021;29;7318;-66
2023/01/19 00:30:37;;;;;;;;;;;;;;;25.55;39.04;93087.06;4877249;29;9154;-66
2023/01/19 00:33:05;;;;;;;;;;;;;;;25.56;39.20;93094.78;4882901;29;8743;-66
2023/01/19 00:35:42;;;;;;;;;;;;;;;25.55;39.07;93096.06;4895388;29;7532;-66
2023/01/19 00:38:20;;;;;;;;;;;;;;;25.55;38.26;93098.06;4883258;29;7102;-66
2023/01/19 00:40:57;;;;;;;;;;;;;;;25.56;38.35;93102.28;4883401;29;7174;-65
2023/01/19 00:43:33;;;;;;;;;;;;;;;25.56;38.92;93097.53;4895124;29;7824;-66
2023/01/19 00:46:10;;;;;;;;;;;;;;;25.56;38.14;93096.78;4893532;29;7967;-65
2023/01/19 00:48:44;;;;;;;;;;;;;;;25.55;38.20;93098.81;4885520;29;7478;-65
2023/01/19 00:51:10;;;;;;;;;;;;;;;25.57;38.67;93098.25;4889483;29;8711;-65
2023/01/19 00:53:36;;;;;;;;;;;;;;;25.53;39.11;93095.88;4882151;29;9073;-65
2023/01/19 00:56:02;;;;;;;;;;;;;;;25.56;38.91;93094.03;4882923;29;8961;-65
2023/01/19 00:58:31;;;;;;;;;;;;;;;25.56;38.95;93108.53;4897582;29;7239;-65
2023/01/19 01:01:04;;;;;;;;;;;;;;;25.52;38.93;93102.63;4884589;29;8456;-65
2023/01/19 01:03:37;;;;;;;;;;;;;;;25.56;38.25;93116.78;4916786;28;7095;-65
2023/01/19 01:06:17;;;;;;;;;;;;;;;25.57;38.94;93103.78;4940181;28;9033;-66
2023/01/19 01:08:49;;;;;;;;;;;;;;;25.57;38.48;93112.78;4955772;28;7279;-66
2023/01/19 01:11:35;;;;;;;;;;;;;;;25.57;38.39;93112.78;4954228;28;9059;-66
2023/01/19 01:14:09;;;;;;;;;;;;;;;25.58;38.10;93111.47;4932681;28;7342;-66
2023/01/19 01:16:42;;;;;;;;;;;;;;;25.55;38.08;93112.59;4926980;28;8614;-66
2023/01/19 01:19:19;;;;;;;;;;;;;;;25.56;38.64;93110.53;4954524;28;7311;-66
2023/01/19 01:21:51;;;;;;;;;;;;;;;25.55;38.51;93115.34;4939415;28;8993;-66
2023/01/19 01:24:17;;;;;;;;;;;;;;;25.54;38.51;93118.59;4946131;28;9058;-66
2023/01/19 01:26:43;;;;;;;;;;;;;;;25.55;38.27;93120.84;4944822;28;7215;-66
2023/01/19 01:30:01;;;;;;;;;;;;;;;25.55;38.16;93123.59;4950720;28;7189;-66
2023/01/19 01:32:36;;;;;;;;;;;;;;;25.56;38.79;93124.31;4954345;28;7377;-66
2023/01/19 01:35:03;;;;;;;;;;;;;;;25.56;38.62;93125.06;4933252;28;7216;-66
2023/01/19 01:37:57;;;;;;;;;;;;;;;25.56;38.16;93122.31;4937831;29;8685;-66
2023/01/19 01:40:26;;;;;;;;;;;;;;;25.55;38.34;93126.34;4862188;29;7042;-66
2023/01/19 01:42:52;;;;;;;;;;;;;;;25.50;38.78;93118.97;4860611;29;7019;-66
2023/01/19 01:45:38;;;;;;;;;;;;;;;25.54;38.07;93127.59;4874560;29;9429;-66
2023/01/19 01:48:11;;;;;;;;;;;;;;;25.55;38.55;93126.34;4876974;29;9177;-66
2023/01/19 01:53:38;;;;;;;;;;;;;;;25.56;38.78;93124.31;4877908;29;7365;-66
2023/01/19 01:56:11;;;;;;;;;;;;;;;25.57;38.85;93123.78;4863263;29;9146;-66
2023/01/19 01:58:39;;;;;;;;;;;;;;;25.58;38.01;93130.75;4861600;29;7115;-66
2023/01/19 02:04:16;;;;;;;;;;;;;;;25.56;38.93;93119.53;4854631;29;9010;-66
2023/01/19 02:15:20;;;;;;;;;;;;;;;25.55;38.47;93131.84;4848718;29;7180;-66
2023/01/19 02:17:47;;;;;;;;;;;;;;;25.55;38.59;93131.09;4888386;29;9087;-66
2023/01/19 02:20:13;;;;;;;;;;;;;;;25.54;38.46;93135.88;4914970;29;7291;-66
2023/01/19 02:22:50;;;;;;;;;;;;;;;25.55;38.32;93131.84;4915120;29;7986;-66
2023/01/19 02:25:19;;;;;;;;;;;;;;;25.56;38.14;93140.81;4906883;29;9321;-66
2023/01/19 02:28:20;;;;;;;;;;;;;;;25.57;38.78;93140.31;4932628;28;7074;-66
2023/01/19 02:30:48;;;;;;;;;;;;;;;25.56;38.78;93143.59;4928872;29;7993;-66
2023/01/19 02:33:38;;;;;;;;;;;;;;;25.55;38.59;93142.88;4912729;29;7083;-66
2023/01/19 02:36:09;;;;;;;;;;;;;;;25.54;38.17;93138.63;4935446;28;7271;-66
2023/01/19 02:38:57;;;;;;;;;;;;;;;25.52;38.12;93141.19;4954973;28;7044;-66
2023/01/19 02:41:31;;;;;;;;;;;;;;;25.53;37.87;93150.94;4947836;28;7261;-66
2023/01/19 02:43:59;;;;;;;;;;;;;;;25.54;37.90;93149.63;4937059;28;9321;-66
2023/01/19 02:46:25;;;;;;;;;;;;;;;25.54;39.05;93154.41;4936546;28;9587;-66
2023/01/19 02:49:00;;;;;;;;;;;;;;;25.52;37.77;93148.69;4925290;28;7449;-66
2023/01/19 02:51:29;;;;;;;;;;;;;;;25.54;37.96;93157.16;4953668;28;7263;-66
2023/01/19 02:54:11;;;;;;;;;;;;;;;25.52;38.53;93163.22;4933213;28;7052;-66
2023/01/19 02:56:45;;;;;;;;;;;;;;;25.53;38.11;93156.44;4946544;28;7054;-66
2023/01/19 02:59:28;;;;;;;;;;;;;;;25.52;38.26;93152.19;4947951;28;7186;-66
2023/01/19 03:02:36;;;;;;;;;;;;;;;25.53;37.97;93153.69;4937753;28;9447;-66
2023/01/19 03:05:32;;;;;;;;;;;;;;;25.55;38.75;93147.63;4950681;28;7098;-66
2023/01/19 03:08:04;;;;;;;;;;;;;;;25.55;38.46;93142.13;4948922;28;6999;-66
2023/01/19 03:11:03;;;;;;;;;;;;;;;25.55;38.78;93151.13;4945708;28;7117;-66
2023/01/19 03:13:32;;;;;;;;;;;;;;;25.54;38.60;93157.91;4943584;28;9052;-66
2023/01/19 03:16:09;;;;;;;;;;;;;;;25.54;38.44;93155.16;4938311;28;8913;-66
2023/01/19 03:18:52;;;;;;;;;;;;;;;25.53;37.78;93161.94;4927339;28;7049;-67
2023/01/19 03:21:26;;;;;;;;;;;;;;;25.54;38.39;93163.41;4952680;28;9250;-67
2023/01/19 03:24:03;;;;;;;;;;;;;;;25.53;38.25;93161.94;4933984;28;7282;-67
2023/01/19 03:26:36;;;;;;;;;;;;;;;25.54;38.88;93168.16;4923738;28;7254;-67
2023/01/19 03:29:08;;;;;;;;;;;;;;;25.52;38.64;93159.72;4934176;29;9228;-67
2023/01/19 03:31:38;;;;;;;;;;;;;;;25.52;37.86;93165.22;4953334;28;7272;-67
2023/01/19 03:34:10;;;;;;;;;;;;;;;25.52;38.17;93171.47;4942915;29;7401;-67
2023/01/19 03:36:47;;;;;;;;;;;;;;;25.52;38.65;93171.47;4921277;29;7033;-67
2023/01/19 03:39:21;;;;;;;;;;;;;;;25.52;38.41;93170.72;4948043;29;7146;-67
2023/01/19 03:41:53;;;;;;;;;;;;;;;25.52;38.19;93179.72;4935190;29;7035;-67
2023/01/19 03:44:28;;;;;;;;;;;;;;;25.52;38.91;93170.72;4931700;29;7051;-67
2023/01/19 03:46:57;;;;;;;;;;;;;;;25.53;37.88;93172.97;4950499;28;9166;-67
2023/01/19 03:49:23;;;;;;;;;;;;;;;25.52;38.18;93167.97;4923552;29;9650;-66
2023/01/19 03:51:49;;;;;;;;;;;;;;;25.53;37.70;93170.19;4945341;29;7049;-67
2023/01/19 03:54:15;;;;;;;;;;;;;;;25.52;37.97;93167.97;4930608;29;8787;-67
2023/01/19 03:56:42;;;;;;;;;;;;;;;25.53;38.81;93178.47;4927216;29;7854;-67
2023/01/19 03:59:08;;;;;;;;;;;;;;;25.54;38.88;93181.94;4943714;29;9053;-67
2023/01/19 04:01:35;;;;;;;;;;;;;;;25.54;38.74;93174.41;4950818;29;9019;-67
2023/01/19 04:04:08;;;;;;;;;;;;;;;25.53;38.74;93189.47;4947612;29;9360;-67
2023/01/19 04:06:36;;;;;;;;;;;;;;;25.52;38.19;93193.50;4950307;29;7001;-67
2023/01/19 04:09:04;;;;;;;;;;;;;;;25.53;38.63;93197.72;4927910;29;8495;-67
2023/01/19 04:11:30;;;;;;;;;;;;;;;25.52;38.54;93192.75;4928666;29;7092;-67
2023/01/19 04:13:59;;;;;;;;;;;;;;;25.51;37.82;93200.28;4924285;29;8959;-67
2023/01/19 04:16:27;;;;;;;;;;;;;;;25.52;38.12;93196.25;4932049;29;7267;-65
2023/01/19 04:18:58;;;;;;;;;;;;;;;25.51;38.41;93194.03;4929222;29;8762;-64
2023/01/19 04:21:24;;;;;;;;;;;;;;;25.51;38.53;93192.03;4949932;29;9765;-64
2023/01/19 04:23:53;;;;;;;;;;;;;;;25.51;38.14;93194.03;4934030;29;7003;-64
2023/01/19 04:26:25;;;;;;;;;;;;;;;25.51;38.27;93191.28;4934446;29;7030;-64
2023/01/19 04:28:53;;;;;;;;;;;;;;;25.52;38.77;93190.00;4943506;28;7106;-64
2023/01/19 04:31:21;;;;;;;;;;;;;;;25.47;38.05;93185.38;4935806;28;8676;-64
2023/01/19 04:33:47;;;;;;;;;;;;;;;25.53;37.79;93192.22;4953071;28;6936;-64
2023/01/19 04:36:13;;;;;;;;;;;;;;;25.54;37.80;93195.69;4952731;28;6860;-64
2023/01/19 04:38:39;;;;;;;;;;;;;;;25.52;38.11;93193.50;4929705;29;9312;-64
2023/01/19 04:41:05;;;;;;;;;;;;;;;25.51;38.25;93199.53;4935942;28;9334;-64
2023/01/19 04:43:32;;;;;;;;;;;;;;;25.51;38.49;93196.78;4934791;29;9162;-64
2023/01/19 04:46:06;;;;;;;;;;;;;;;25.53;38.07;93200.50;4954703;28;9136;-64
2023/01/19 04:49:01;;;;;;;;;;;;;;;25.52;38.71;93212.75;4953811;28;7127;-64
2023/01/19 04:51:30;;;;;;;;;;;;;;;25.51;38.04;93202.31;4937451;29;7105;-64
2023/01/19 04:53:58;;;;;;;;;;;;;;;25.50;37.58;93209.06;4956493;28;8937;-64
2023/01/19 04:56:30;;;;;;;;;;;;;;;25.49;38.38;93210.34;4930564;28;6945;-64
2023/01/19 04:59:04;;;;;;;;;;;;;;;25.50;38.66;93215.31;4954442;28;7250;-64
2023/01/19 05:01:31;;;;;;;;;;;;;;;25.48;38.24;93212.38;4946190;28;7338;-64
2023/01/19 05:04:05;;;;;;;;;;;;;;;25.49;38.18;93216.59;4953378;28;7302;-64
2023/01/19 05:06:57;;;;;;;;;;;;;;;25.51;37.73;93224.31;4931279;28;8434;-64
2023/01/19 05:09:48;;;;;;;;;;;;;;;25.51;38.40;93219.56;4929223;28;7201;-64
2023/01/19 05:12:26;;;;;;;;;;;;;;;25.50;38.66;93223.56;4949670;28;7049;-64
2023/01/19 05:15:08;;;;;;;;;;;;;;;25.51;38.30;93227.06;4954813;28;9314;-64
2023/01/19 05:17:35;;;;;;;;;;;;;;;25.49;37.74;93233.09;4951816;28;7373;-64
2023/01/19 05:20:20;;;;;;;;;;;;;;;25.49;37.71;93230.34;4940329;28;9879;-64
2023/01/19 05:22:57;;;;;;;;;;;;;;;25.49;38.51;93230.34;4940709;28;9247;-66
2023/01/19 05:25:24;;;;;;;;;;;;;;;25.48;38.22;93230.91;4913639;29;8678;-67
2023/01/19 05:27:52;;;;;;;;;;;;;;;25.49;37.71;93232.38;4937838;28;7019;-67
2023/01/19 05:30:44;;;;;;;;;;;;;;;25.49;38.61;93237.88;4956332;28;9269;-67
2023/01/19 05:33:14;;;;;;;;;;;;;;;25.48;38.04;93228.88;4936798;28;9335;-67
2023/01/19 05:35:56;;;;;;;;;;;;;;;25.49;37.74;93229.63;4949367;28;9281;-67
2023/01/19 05:38:23;;;;;;;;;;;;;;;25.48;38.29;93234.38;4937928;28;9067;-67
2023/01/19 05:40:58;;;;;;;;;;;;;;;25.48;37.75;93237.16;4937776;28;7277;-67
2023/01/19 05:43:29;;;;;;;;;;;;;;;25.49;37.59;93235.84;4951943;28;7037;-67
2023/01/19 05:45:56;;;;;;;;;;;;;;;25.48;37.95;93245.41;4945684;28;9370;-67
2023/01/19 05:48:41;;;;;;;;;;;;;;;25.51;38.37;93247.09;4930291;29;7224;-68
2023/01/19 05:51:07;;;;;;;;;;;;;;;25.49;38.25;93244.13;4936766;28;9026;-68
2023/01/19 05:53:33;;;;;;;;;;;;;;;25.48;38.71;93236.41;4947210;28;8706;-68
2023/01/19 05:56:03;;;;;;;;;;;;;;;25.50;38.13;93242.84;4932372;28;7281;-67
2023/01/19 05:58:31;;;;;;;;;;;;;;;25.50;37.09;93240.09;4949410;28;7290;-67
2023/01/19 06:01:04;;;;;;;;;;;;;;;25.50;37.96;93251.09;4943804;28;9118;-67
2023/01/19 06:03:35;;;;;;;;;;;;;;;25.49;38.19;93251.66;4932012;29;8996;-67
2023/01/19 06:06:02;;;;;;;;;;;;;;;25.45;38.41;93257.47;4908183;28;9463;-67
2023/01/19 06:08:33;;;;;;;;;;;;;;;25.47;38.78;93265.94;4940181;28;9375;-67
2023/01/19 06:10:59;;;;;;;;;;;;;;;25.53;38.11;93266.56;4947753;28;7275;-67
2023/01/19 06:13:25;;;;;;;;;;;;;;;25.58;37.89;93267.72;4949882;28;7468;-67
2023/01/19 06:15:58;;;;;;;;;;;;;;;25.56;37.91;93268.22;4909421;28;9381;-68
2023/01/19 06:18:27;;;;;;;;;;;;;;;25.60;38.16;93260.38;4934128;28;9322;-68
2023/01/19 06:20:57;;;;;;;;;;;;;;;25.56;39.14;93270.22;4936754;28;9427;-67
2023/01/19 06:23:30;;;;;;;;;;;;;;;25.55;38.11;93266.75;4949978;28;7394;-68
2023/01/19 06:26:01;;;;;;;;;;;;;;;25.51;38.83;93269.13;4929126;29;7039;-68
2023/01/19 06:28:28;;;;;;;;;;;;;;;25.49;37.90;93266.13;4934703;28;7382;-68
2023/01/19 06:31:21;;;;;;;;;;;;;;;25.50;38.03;93267.63;4949905;28;7277;-67
2023/01/19 06:33:50;;;;;;;;;;;;;;;25.50;38.18;93267.63;4894812;29;9233;-67
2023/01/19 06:36:32;;;;;;;;;;;;;;;25.52;38.06;93267.81;4898260;29;7092;-67
2023/01/19 06:39:09;;;;;;;;;;;;;;;25.59;37.41;93278.19;4899613;29;7029;-67
2023/01/19 06:42:05;;;;;;;;;;;;;;;25.57;35.40;93277.97;4905915;29;7297;-68
2023/01/19 06:45:04;;;;;;;;;;;;;;;25.48;37.17;93278.44;4877720;29;9301;-68
2023/01/19 06:47:33;;;;;;;;;;;;;;;25.42;37.16;93269.56;4849685;29;9026;-67
2023/01/19 06:49:59;;;;;;;;;;;;;;;25.40;36.99;93270.06;4877929;29;7496;-68
2023/01/19 06:52:27;;;;;;;;;;;;;;;25.39;37.17;93273.38;4862045;29;9042;-68
2023/01/19 06:54:53;;;;;;;;;;;;;;;25.41;37.04;93282.56;4862047;29;6983;-68
2023/01/19 06:57:19;;;;;;;;;;;;;;;25.41;37.07;93281.81;4861709;29;7206;-68
2023/01/19 06:59:48;;;;;;;;;;;;;;;25.41;36.76;93284.56;4869138;29;7078;-67
2023/01/19 07:02:18;;;;;;;;;;;;;;;25.41;37.24;93281.81;4876228;29;7512;-68
2023/01/19 07:04:45;;;;;;;;;;;;;;;25.41;37.15;93282.56;4874989;29;7058;-68
2023/01/19 07:07:14;;;;;;;;;;;;;;;25.38;37.46;93291.88;4859922;29;7035;-68
2023/01/19 07:09:42;;;;;;;;;;;;;;;25.32;36.64;93287.78;4872271;29;9068;-68
2023/01/19 07:12:10;;;;;;;;;;;;;;;25.10;26.47;93285.56;4876182;29;9110;-67
2023/01/19 07:14:56;;;;;;;;;;;;;;;24.77;27.22;93294.50;4892912;29;8643;-67
2023/01/19 07:17:22;;;;;;;;;;;;;;;24.60;24.19;93301.03;4896250;29;7340;-66
2023/01/19 07:19:55;;;;;;;;;;;;;;;24.52;25.08;93302.22;4897403;29;8432;-67
2023/01/19 07:22:56;;;;;;;;;;;;;;;24.50;26.35;93300.00;4935941;29;9463;-67
2023/01/19 07:25:35;;;;;;;;;;;;;;;24.54;25.19;93303.16;4858952;29;7218;-67
2023/01/19 07:28:01;;;;;;;;;;;;;;;24.63;26.29;93308.25;4870298;29;9012;-67
2023/01/19 07:30:42;;;;;;;;;;;;;;;24.73;26.79;93321.56;4872891;29;8975;-67
2023/01/19 07:33:08;;;;;;;;;;;;;;;24.80;26.74;93323.69;4853593;29;8722;-67
2023/01/19 07:36:19;;;;;;;;;;;;;;;24.82;24.22;93326.63;4873809;29;7259;-68
2023/01/19 07:39:06;;;;;;;;;;;;;;;24.83;24.99;93322.63;4846388;29;7278;-67
2023/01/19 07:41:43;;;;;;;;;;;;;;;24.87;26.23;93323.03;4858549;29;7015;-67
2023/01/19 07:44:12;;;;;;;;;;;;;;;24.86;27.29;93324.31;4859230;29;9300;-67
2023/01/19 07:46:53;;;;;;;;;;;;;;;24.87;26.31;93334.78;4863792;29;7055;-66
2023/01/19 07:49:28;;;;;;;;;;;;;;;24.91;25.98;93328.97;4871586;29;7131;-67
2023/01/19 07:51:55;;;;;;;;;;;;;;;24.92;26.60;93330.44;4851830;29;9161;-67
2023/01/19 07:54:23;;;;;;;;;;;;;;;24.97;28.09;93335.09;4872788;29;8984;-66
2023/01/19 07:56:52;;;;;;;;;;;;;;;25.01;27.96;93338.25;4876066;29;7153;-67
2023/01/19 07:59:20;;;;;;;;;;;;;;;25.03;28.24;93330.22;4904702;29;7069;-66
2023/01/19 08:01:48;;;;;;;;;;;;;;;25.07;29.07;93336.13;4936422;29;9420;-67
2023/01/19 08:04:18;;;;;;;;;;;;;;;25.09;29.10;93336.34;4948293;28;8035;-67
2023/01/19 08:06:46;;;;;;;;;;;;;;;25.12;28.67;93332.53;4957416;28;7366;-67
2023/01/19 08:09:14;;;;;;;;;;;;;;;25.13;28.95;93334.75;4934837;28;9102;-67
2023/01/19 08:11:58;;;;;;;;;;;;;;;25.16;28.23;93338.44;4931821;29;7238;-67
2023/01/19 08:14:28;;;;;;;;;;;;;;;25.18;29.50;93333.88;4931188;29;8466;-67
2023/01/19 08:16:59;;;;;;;;;;;;;;;25.22;29.78;93325.31;4939558;28;9030;-67
2023/01/19 08:19:31;;;;;;;;;;;;;;;25.24;29.62;93333.75;4941677;28;7335;-66
2023/01/19 08:22:02;;;;;;;;;;;;;;;25.23;29.24;93335.00;4957513;28;9551;-67
2023/01/19 08:24:54;;;;;;;;;;;;;;;25.26;29.63;93340.22;4957314;28;9410;-67
2023/01/19 08:27:42;;;;;;;;;;;;;;;25.27;30.40;93340.97;4958479;28;7621;-67
2023/01/19 08:30:08;;;;;;;;;;;;;;;25.28;30.35;93342.41;4941253;28;9307;-67
2023/01/19 08:32:34;;;;;;;;;;;;;;;25.28;30.22;93345.19;4937852;29;7236;-67
2023/01/19 08:35:00;;;;;;;;;;;;;;;25.29;30.10;93346.66;4928793;28;7359;-66
2023/01/19 08:37:26;;;;;;;;;;;;;;;25.31;30.78;93350.38;4949468;28;9042;-66
2023/01/19 08:39:52;;;;;;;;;;;;;;;25.32;30.16;93353.84;4928782;28;8961;-67
2023/01/19 08:42:21;;;;;;;;;;;;;;;25.33;30.98;93352.56;4926282;29;7234;-66
2023/01/19 08:44:47;;;;;;;;;;;;;;;25.31;30.57;93347.63;4924729;29;7397;-66
2023/01/19 08:47:16;;;;;;;;;;;;;;;25.33;30.64;93349.81;4944840;28;8965;-67
2023/01/19 08:49:42;;;;;;;;;;;;;;;25.35;30.59;93359.03;4941291;28;9160;-66
2023/01/19 08:52:07;;;;;;;;;;;;;;;25.37;30.85;93361.25;4937213;28;8990;-66
2023/01/19 08:54:34;;;;;;;;;;;;;;;25.36;31.23;93351.50;4938245;28;6976;-66
2023/01/19 08:57:00;;;;;;;;;;;;;;;25.39;30.74;93356.69;4949240;28;7092;-66
2023/01/19 08:59:27;;;;;;;;;;;;;;;25.37;31.55;93361.25;4939408;28;7661;-66
2023/01/19 09:01:53;;;;;;;;;;;;;;;25.38;31.60;93359.97;4938394;28;7277;-66
2023/01/19 09:04:21;;;;;;;;;;;;;;;25.38;31.55;93359.97;4947093;28;7338;-67
2023/01/19 09:06:47;;;;;;;;;;;;;;;25.40;31.46;93352.66;4944149;28;9018;-66
2023/01/19 09:09:21;;;;;;;;;;;;;;;25.42;31.31;93363.19;4956039;28;9174;-67
2023/01/19 09:12:21;;;;;;;;;;;;;;;25.45;32.04;93359.34;4955230;28;7028;-67
2023/01/19 09:14:51;;;;;;;;;;;;;;;25.44;31.91;93357.88;4900635;29;8822;-67
2023/01/19 09:17:21;;;;;;;;;;;;;;;25.43;31.98;93357.13;4901807;29;9439;-67
2023/01/19 09:19:56;;;;;;;;;;;;;;;25.46;32.11;93362.84;4893594;29;7101;-67
2023/01/19 09:22:23;;;;;;;;;;;;;;;25.47;31.94;93356.06;4904161;29;7282;-67
2023/01/19 09:25:09;;;;;;;;;;;;;;;25.47;31.89;93356.78;4905845;29;9038;-67
2023/01/19 09:27:54;;;;;;;;;;;;;;;25.48;32.53;93358.28;4901211;29;8949;-67
2023/01/19 09:30:38;;;;;;;;;;;;;;;25.49;31.67;93359.75;4903027;29;9766;-66
2023/01/19 09:33:19;;;;;;;;;;;;;;;25.49;32.29;93353.53;4917069;29;9154;-67
2023/01/19 09:35:50;;;;;;;;;;;;;;;25.50;32.50;93350.22;4910466;29;9365;-67
2023/01/19 09:38:22;;;;;;;;;;;;;;;25.54;31.87;93358.13;4917035;29;9056;-66
2023/01/19 09:41:18;;;;;;;;;;;;;;;25.55;32.79;93346.63;4893196;29;9319;-67
2023/01/19 09:43:56;;;;;;;;;;;;;;;25.58;32.72;93353.06;4913660;29;7268;-67
2023/01/19 09:46:41;;;;;;;;;;;;;;;25.58;32.80;93347.56;4890225;29;9466;-67
2023/01/19 09:49:19;;;;;;;;;;;;;;;25.59;32.44;93346.28;4898976;29;7011;-67
2023/01/19 09:51:49;;;;;;;;;;;;;;;25.60;32.63;93342.25;4952140;28;9577;-67
2023/01/19 09:54:21;;;;;;;;;;;;;;;25.60;32.18;93340.22;4955061;28;9066;-67
2023/01/19 09:56:48;;;;;;;;;;;;;;;25.64;31.86;93353.66;4953148;28;7306;-67
2023/01/19 09:59:35;;;;;;;;;;;;;;;25.63;32.94;93349.44;4955350;28;8960;-67
2023/01/19 10:02:17;;;;;;;;;;;;;;;25.69;32.37;93345.25;4953975;28;7037;-65
2023/01/19 10:04:53;;;;;;;;;;;;;;;25.70;32.03;93341.25;4939605;28;7465;-65
2023/01/19 10:08:07;;;;;;;;;;;;;;;25.72;32.37;93337.94;4940508;28;8369;-65
2023/01/19 10:10:39;;;;;;;;;;;;;;;25.72;32.22;93344.22;4952862;28;7011;-65
2023/01/19 10:13:15;;;;;;;;;;;;;;;25.70;32.87;93341.25;4938068;28;7278;-65
2023/01/19 10:16:19;;;;;;;;;;;;;;;25.73;32.65;93342.91;4949770;28;7250;-65
2023/01/19 10:19:17;;;;;;;;;;;;;;;25.73;32.64;93345.66;4936756;28;7368;-65
2023/01/19 10:22:03;;;;;;;;;;;;;;;25.71;32.79;93345.47;4955316;28;9000;-65
2023/01/19 10:24:39;;;;;;;;;;;;;;;25.73;33.29;93344.94;4951835;28;7045;-65
2023/01/19 10:27:19;;;;;;;;;;;;;;;25.72;33.40;93346.97;4944212;28;7058;-66
2023/01/19 10:29:59;;;;;;;;;;;;;;;25.75;32.67;93342.41;4952625;28;9318;-66
2023/01/19 10:32:34;;;;;;;;;;;;;;;25.75;32.94;93350.66;4921856;29;9146;-66
2023/01/19 10:35:28;;;;;;;;;;;;;;;25.78;33.62;93347.56;4933397;28;9496;-66
2023/01/19 10:38:29;;;;;;;;;;;;;;;25.78;32.88;93339.31;4937745;28;9036;-66
2023/01/19 10:41:13;;;;;;;;;;;;;;;25.79;32.77;93337.28;4893657;29;8498;-67
2023/01/19 10:43:43;;;;;;;;;;;;;;;25.78;33.27;93342.06;4880285;29;9448;-66
2023/01/19 10:46:19;;;;;;;;;;;;;;;25.78;33.82;93344.81;4877375;29;9331;-66
2023/01/19 10:48:49;;;;;;;;;;;;;;;25.80;33.01;93344.25;4895064;29;7346;-66
2023/01/19 10:51:19;;;;;;;;;;;;;;;25.81;33.88;93346.50;4891231;29;9262;-66
2023/01/19 10:53:58;;;;;;;;;;;;;;;25.82;33.20;93342.44;4890699;29;7058;-66
2023/01/19 10:56:34;;;;;;;;;;;;;;;25.82;33.70;93342.44;4892586;29;9451;-66
2023/01/19 10:59:04;;;;;;;;;;;;;;;25.84;33.97;93336.41;4890450;29;7054;-65
2023/01/19 11:01:39;;;;;;;;;;;;;;;25.83;34.00;93335.69;4878555;29;7494;-66
2023/01/19 11:04:28;;;;;;;;;;;;;;;25.86;33.34;93329.06;4893371;29;8234;-66
2023/01/19 11:07:15;;;;;;;;;;;;;;;25.90;33.65;93340.50;4875170;29;7031;-66
2023/01/19 11:09:44;;;;;;;;;;;;;;;25.87;33.15;93327.81;4878263;29;8455;-65
2023/01/19 11:12:23;;;;;;;;;;;;;;;25.88;33.67;93345.81;4893154;29;8166;-66
2023/01/19 11:14:58;;;;;;;;;;;;;;;25.83;33.26;93338.44;4876687;29;7059;-65
2023/01/19 11:17:29;;;;;;;;;;;;;;;25.82;32.87;93328.69;4945776;28;7278;-65
2023/01/19 11:20:42;;;;;;;;;;;;;;;25.81;33.74;93329.97;4949706;28;9474;-65
2023/01/19 11:23:26;;;;;;;;;;;;;;;25.81;33.43;93332.72;4938616;28;9168;-66
2023/01/19 11:26:04;;;;;;;;;;;;;;;25.80;33.94;93333.25;4952078;28;8987;-66
2023/01/19 11:29:02;;;;;;;;;;;;;;;25.81;33.12;93329.97;4953739;28;9341;-65
2023/01/19 11:31:28;;;;;;;;;;;;;;;25.88;33.73;93329.28;4911776;29;8990;-65
2023/01/19 11:33:56;;;;;;;;;;;;;;;25.92;33.85;93324.19;4888978;29;9287;-66
2023/01/19 11:36:24;;;;;;;;;;;;;;;25.92;33.60;93324.19;4894566;29;7832;-65
2023/01/19 11:38:56;;;;;;;;;;;;;;;25.92;34.07;93318.69;4885848;29;7281;-66
2023/01/19 11:41:36;;;;;;;;;;;;;;;25.95;33.79;93327.88;4907715;29;7200;-65
2023/01/19 11:44:14;;;;;;;;;;;;;;;25.97;34.16;93319.78;4895388;29;7321;-65
2023/01/19 11:46:45;;;;;;;;;;;;;;;25.98;34.44;93322.03;4886927;29;10539;-65
2023/01/19 11:49:42;;;;;;;;;;;;;;;25.97;34.02;93319.78;4893538;29;9083;-65
2023/01/19 11:52:26;;;;;;;;;;;;;;;25.99;33.85;93323.50;4905662;29;7253;-65
2023/01/19 11:54:57;;;;;;;;;;;;;;;26.00;33.96;93316.72;4913342;29;6960;-65
2023/01/19 11:57:23;;;;;;;;;;;;;;;26.03;34.17;93312.88;4900182;29;9147;-65
2023/01/19 11:59:48;;;;;;;;;;;;;;;26.04;33.71;93314.38;4895645;29;9149;-65
2023/01/19 12:02:43;;;;;;;;;;;;;;;26.06;33.95;93316.56;4888851;29;7472;-66
2023/01/19 12:05:18;;;;;;;;;;;;;;;26.08;34.22;93308.50;4911815;29;8269;-66
2023/01/19 12:07:48;;;;;;;;;;;;;;;26.08;34.17;93314.78;4907170;28;7378;-66
2023/01/19 12:10:24;;;;;;;;;;;;;;;26.09;34.44;93310.75;4943574;28;7230;-65
2023/01/19 12:12:53;;;;;;;;;;;;;;;26.09;34.37;93310.03;4933817;28;9212;-65
2023/01/19 12:15:38;;;;;;;;;;;;;;;26.10;34.68;93308.72;4941690;28;7209;-65
2023/01/19 12:18:10;;;;;;;;;;;;;;;26.11;34.27;93310.97;4949171;28;7281;-65
2023/01/19 12:20:43;;;;;;;;;;;;;;;26.13;34.61;93311.16;4936495;28;9464;-66
2023/01/19 12:23:31;;;;;;;;;;;;;;;26.17;34.44;93314.31;4925751;28;7007;-66
2023/01/19 12:26:34;;;;;;;;;;;;;;;26.21;33.63;93316.00;4946027;28;8734;-66
2023/01/19 12:29:12;;;;;;;;;;;;;;;26.22;34.08;93317.44;4946275;28;7034;-66
2023/01/19 12:31:41;;;;;;;;;;;;;;;26.20;34.63;93315.25;4932698;28;9039;-65
2023/01/19 12:34:24;;;;;;;;;;;;;;;26.21;34.23;93308.44;4936949;28;7636;-66
2023/01/19 12:36:55;;;;;;;;;;;;;;;26.21;33.65;93316.00;4949664;28;8739;-65
2023/01/19 12:39:24;;;;;;;;;;;;;;;26.23;33.87;93314.16;4941367;28;8949;-66
2023/01/19 12:42:29;;;;;;;;;;;;;;;26.26;34.52;93309.56;4940780;28;7013;-65
2023/01/19 12:45:38;;;;;;;;;;;;;;;26.28;34.00;93312.53;4938095;29;9094;-65
2023/01/19 12:48:22;;;;;;;;;;;;;;;26.29;34.31;93303.00;4958272;28;9010;-66
2023/01/19 12:50:50;;;;;;;;;;;;;;;26.30;34.71;93302.44;4940257;28;8731;-65
2023/01/19 12:53:21;;;;;;;;;;;;;;;26.31;34.13;93297.69;4956720;28;7055;-65
2023/01/19 12:56:01;;;;;;;;;;;;;;;26.36;34.34;93302.31;4953420;28;7460;-65
2023/01/19 12:58:30;;;;;;;;;;;;;;;26.33;34.25;93298.63;4956789;28;7008;-65
2023/01/19 13:01:20;;;;;;;;;;;;;;;26.41;34.61;93295.91;4938382;28;8798;-65
2023/01/19 13:04:26;;;;;;;;;;;;;;;26.42;34.50;93300.88;4940105;28;9213;-65
2023/01/19 13:06:52;;;;;;;;;;;;;;;26.46;34.65;93297.78;4956455;28;7367;-65
2023/01/19 13:09:35;;;;;;;;;;;;;;;26.44;34.17;93292.06;4954158;28;7003;-65
2023/01/19 13:12:24;;;;;;;;;;;;;;;26.42;34.43;93289.09;4940788;28;7164;-66
2023/01/19 13:15:27;;;;;;;;;;;;;;;26.46;35.03;93300.53;4953483;28;10151;-66
2023/01/19 13:17:54;;;;;;;;;;;;;;;26.46;34.52;93297.78;4934098;28;9049;-66
2023/01/19 13:20:30;;;;;;;;;;;;;;;26.47;35.15;93291.69;4936508;28;8788;-66
2023/01/19 13:23:17;;;;;;;;;;;;;;;26.47;34.98;93288.94;4950623;28;7082;-66
2023/01/19 13:25:50;;;;;;;;;;;;;;;26.45;34.60;93288.75;4952099;28;7089;-64
2023/01/19 13:28:19;;;;;;;;;;;;;;;26.51;34.55;93292.09;4951974;28;9073;-65
2023/01/19 13:30:57;;;;;;;;;;;;;;;26.53;35.02;93288.81;4935737;28;7101;-66
2023/01/19 13:33:37;;;;;;;;;;;;;;;26.53;35.42;93283.28;4950580;28;8759;-66
2023/01/19 13:36:25;;;;;;;;;;;;;;;26.56;35.19;93285.69;4936526;28;7274;-66
2023/01/19 13:38:55;;;;;;;;;;;;;;;26.52;34.63;93285.31;4950582;28;9767;-66
2023/01/19 13:41:27;;;;;;;;;;;;;;;26.55;34.85;93289.00;4937250;28;7184;-66
2023/01/19 13:44:08;;;;;;;;;;;;;;;26.57;34.94;93292.69;4952934;28;7135;-66
2023/01/19 13:46:39;;;;;;;;;;;;;;;26.57;34.78;93287.19;4930110;28;8989;-61
2023/01/19 13:49:28;;;;;;;;;;;;;;;26.63;34.84;93298.03;4926739;28;7623;-61
2023/01/19 13:52:26;;;;;;;;;;;;;;;26.65;35.36;93295.47;4934901;28;7042;-62
2023/01/19 13:54:58;;;;;;;;;;;;;;;26.65;34.68;93293.47;4952214;28;8731;-61
2023/01/19 13:57:30;;;;;;;;;;;;;;;26.66;34.75;93294.22;4936271;28;8154;-61